sensor_id;sensor_type;location;lat;lon;timestamp;P1;durP1;ratioP1;P2;durP2;ratioP2
55146;SDS011;41039;49.830;23.988;2023-12-20T00:02:21;3.93;;;3.20;;
55146;SDS011;41039;49.830;23.988;2023-12-20T00:04:46;3.63;;;2.80;;
55146;SDS011;41039;49.830;23.988;2023-12-20T00:07:12;3.35;;;2.85;;
55146;SDS011;41039;49.830;23.988;2023-12-20T00:09:37;4.03;;;3.30;;
55146;SDS011;41039;49.830;23.988;2023-12-20T00:12:02;3.30;;;2.80;;
55146;SDS011;41039;49.830;23.988;2023-12-20T00:14:27;3.92;;;2.70;;
55146;SDS011;41039;49.830;23.988;2023-12-20T00:16:52;3.33;;;2.63;;
55146;SDS011;41039;49.830;23.988;2023-12-20T00:19:18;4.23;;;3.00;;
55146;SDS011;41039;49.830;23.988;2023-12-20T00:21:43;3.17;;;2.60;;
55146;SDS011;41039;49.830;23.988;2023-12-20T00:24:08;4.30;;;3.08;;
55146;SDS011;41039;49.830;23.988;2023-12-20T00:26:33;2.92;;;2.30;;
55146;SDS011;41039;49.830;23.988;2023-12-20T00:28:59;3.85;;;2.38;;
55146;SDS011;41039;49.830;23.988;2023-12-20T00:31:24;3.97;;;2.72;;
55146;SDS011;41039;49.830;23.988;2023-12-20T00:33:49;3.28;;;2.50;;
55146;SDS011;41039;49.830;23.988;2023-12-20T00:36:15;3.33;;;2.50;;
55146;SDS011;41039;49.830;23.988;2023-12-20T00:38:40;3.17;;;2.63;;
55146;SDS011;41039;49.830;23.988;2023-12-20T00:41:05;4.25;;;2.83;;
55146;SDS011;41039;49.830;23.988;2023-12-20T00:43:31;3.75;;;2.95;;
55146;SDS011;41039;49.830;23.988;2023-12-20T00:45:56;3.23;;;2.40;;
55146;SDS011;41039;49.830;23.988;2023-12-20T00:48:22;3.08;;;2.45;;
55146;SDS011;41039;49.830;23.988;2023-12-20T00:50:47;3.73;;;2.90;;
55146;SDS011;41039;49.830;23.988;2023-12-20T00:53:12;2.87;;;2.43;;
55146;SDS011;41039;49.830;23.988;2023-12-20T00:55:37;3.60;;;2.45;;
55146;SDS011;41039;49.830;23.988;2023-12-20T00:58:03;3.03;;;2.50;;
55146;SDS011;41039;49.830;23.988;2023-12-20T01:00:28;2.72;;;2.22;;
55146;SDS011;41039;49.830;23.988;2023-12-20T01:02:53;3.05;;;2.30;;
55146;SDS011;41039;49.830;23.988;2023-12-20T01:05:18;3.13;;;2.10;;
55146;SDS011;41039;49.830;23.988;2023-12-20T01:07:44;3.30;;;2.30;;
55146;SDS011;41039;49.830;23.988;2023-12-20T01:10:09;3.58;;;2.22;;
55146;SDS011;41039;49.830;23.988;2023-12-20T01:12:35;3.63;;;2.47;;
55146;SDS011;41039;49.830;23.988;2023-12-20T01:15:01;3.15;;;2.42;;
55146;SDS011;41039;49.830;23.988;2023-12-20T01:17:26;3.17;;;2.47;;
55146;SDS011;41039;49.830;23.988;2023-12-20T01:19:51;2.90;;;2.13;;
55146;SDS011;41039;49.830;23.988;2023-12-20T01:22:16;3.17;;;2.40;;
55146;SDS011;41039;49.830;23.988;2023-12-20T01:24:42;3.33;;;2.25;;
55146;SDS011;41039;49.830;23.988;2023-12-20T01:27:07;3.25;;;2.30;;
55146;SDS011;41039;49.830;23.988;2023-12-20T01:29:32;3.37;;;2.47;;
55146;SDS011;41039;49.830;23.988;2023-12-20T01:31:58;2.55;;;2.15;;
55146;SDS011;41039;49.830;23.988;2023-12-20T01:34:23;3.73;;;2.67;;
55146;SDS011;41039;49.830;23.988;2023-12-20T01:36:48;2.85;;;2.20;;
55146;SDS011;41039;49.830;23.988;2023-12-20T01:39:13;3.47;;;2.57;;
55146;SDS011;41039;49.830;23.988;2023-12-20T01:41:39;3.70;;;2.53;;
55146;SDS011;41039;49.830;23.988;2023-12-20T01:44:04;3.10;;;2.38;;
55146;SDS011;41039;49.830;23.988;2023-12-20T01:46:29;3.05;;;2.38;;
55146;SDS011;41039;49.830;23.988;2023-12-20T01:48:55;3.17;;;2.53;;
55146;SDS011;41039;49.830;23.988;2023-12-20T01:51:20;4.73;;;2.20;;
55146;SDS011;41039;49.830;23.988;2023-12-20T01:53:46;2.83;;;2.10;;
55146;SDS011;41039;49.830;23.988;2023-12-20T01:56:11;3.30;;;2.45;;
55146;SDS011;41039;49.830;23.988;2023-12-20T01:58:45;3.10;;;2.42;;
55146;SDS011;41039;49.830;23.988;2023-12-20T02:01:11;2.90;;;2.20;;
55146;SDS011;41039;49.830;23.988;2023-12-20T02:03:37;2.92;;;2.20;;
55146;SDS011;41039;49.830;23.988;2023-12-20T02:06:02;2.85;;;2.30;;
55146;SDS011;41039;49.830;23.988;2023-12-20T02:08:28;3.13;;;2.40;;
55146;SDS011;41039;49.830;23.988;2023-12-20T02:10:53;2.97;;;2.30;;
55146;SDS011;41039;49.830;23.988;2023-12-20T02:13:19;3.15;;;2.53;;
55146;SDS011;41039;49.830;23.988;2023-12-20T02:15:44;2.97;;;2.25;;
55146;SDS011;41039;49.830;23.988;2023-12-20T02:18:09;3.03;;;2.25;;
55146;SDS011;41039;49.830;23.988;2023-12-20T02:20:34;2.60;;;2.10;;
55146;SDS011;41039;49.830;23.988;2023-12-20T02:23:00;3.23;;;2.40;;
55146;SDS011;41039;49.830;23.988;2023-12-20T02:25:25;2.58;;;1.90;;
55146;SDS011;41039;49.830;23.988;2023-12-20T02:27:50;3.08;;;2.30;;
55146;SDS011;41039;49.830;23.988;2023-12-20T02:30:16;3.38;;;2.25;;
55146;SDS011;41039;49.830;23.988;2023-12-20T02:32:41;2.58;;;2.13;;
55146;SDS011;41039;49.830;23.988;2023-12-20T02:35:06;3.07;;;2.27;;
55146;SDS011;41039;49.830;23.988;2023-12-20T02:37:32;2.72;;;2.28;;
55146;SDS011;41039;49.830;23.988;2023-12-20T02:39:57;4.07;;;2.13;;
55146;SDS011;41039;49.830;23.988;2023-12-20T02:42:23;2.87;;;2.00;;
55146;SDS011;41039;49.830;23.988;2023-12-20T02:44:48;3.17;;;2.13;;
55146;SDS011;41039;49.830;23.988;2023-12-20T02:47:13;3.38;;;2.50;;
55146;SDS011;41039;49.830;23.988;2023-12-20T02:49:38;2.63;;;2.10;;
55146;SDS011;41039;49.830;23.988;2023-12-20T02:52:04;2.95;;;1.98;;
55146;SDS011;41039;49.830;23.988;2023-12-20T02:54:29;3.63;;;2.00;;
55146;SDS011;41039;49.830;23.988;2023-12-20T02:56:54;3.77;;;2.17;;
55146;SDS011;41039;49.830;23.988;2023-12-20T02:59:19;3.27;;;2.10;;
55146;SDS011;41039;49.830;23.988;2023-12-20T03:01:45;2.73;;;2.10;;
55146;SDS011;41039;49.830;23.988;2023-12-20T03:04:11;2.33;;;2.00;;
55146;SDS011;41039;49.830;23.988;2023-12-20T03:06:36;2.33;;;2.00;;
55146;SDS011;41039;49.830;23.988;2023-12-20T03:09:01;2.42;;;1.95;;
55146;SDS011;41039;49.830;23.988;2023-12-20T03:11:27;2.75;;;2.10;;
55146;SDS011;41039;49.830;23.988;2023-12-20T03:13:52;3.15;;;2.20;;
55146;SDS011;41039;49.830;23.988;2023-12-20T03:16:18;2.42;;;1.73;;
55146;SDS011;41039;49.830;23.988;2023-12-20T03:18:43;2.58;;;1.80;;
55146;SDS011;41039;49.830;23.988;2023-12-20T03:21:09;3.72;;;2.00;;
55146;SDS011;41039;49.830;23.988;2023-12-20T03:23:34;2.83;;;1.95;;
55146;SDS011;41039;49.830;23.988;2023-12-20T03:25:59;2.88;;;1.83;;
55146;SDS011;41039;49.830;23.988;2023-12-20T03:28:25;2.80;;;1.88;;
55146;SDS011;41039;49.830;23.988;2023-12-20T03:30:50;2.28;;;1.90;;
55146;SDS011;41039;49.830;23.988;2023-12-20T03:33:15;3.13;;;2.03;;
55146;SDS011;41039;49.830;23.988;2023-12-20T03:35:40;2.80;;;2.10;;
55146;SDS011;41039;49.830;23.988;2023-12-20T03:38:06;3.03;;;1.95;;
55146;SDS011;41039;49.830;23.988;2023-12-20T03:40:31;2.72;;;2.20;;
55146;SDS011;41039;49.830;23.988;2023-12-20T03:42:56;2.65;;;1.92;;
55146;SDS011;41039;49.830;23.988;2023-12-20T03:45:21;2.60;;;1.97;;
55146;SDS011;41039;49.830;23.988;2023-12-20T03:47:47;2.97;;;2.13;;
55146;SDS011;41039;49.830;23.988;2023-12-20T03:50:12;3.00;;;1.80;;
55146;SDS011;41039;49.830;23.988;2023-12-20T03:52:38;2.70;;;2.00;;
55146;SDS011;41039;49.830;23.988;2023-12-20T03:55:03;2.67;;;1.90;;
55146;SDS011;41039;49.830;23.988;2023-12-20T03:57:28;3.10;;;1.88;;
55146;SDS011;41039;49.830;23.988;2023-12-20T03:59:54;2.90;;;2.17;;
55146;SDS011;41039;49.830;23.988;2023-12-20T04:02:19;3.03;;;2.22;;
55146;SDS011;41039;49.830;23.988;2023-12-20T04:04:44;2.45;;;2.00;;
55146;SDS011;41039;49.830;23.988;2023-12-20T04:07:09;2.80;;;2.00;;
55146;SDS011;41039;49.830;23.988;2023-12-20T04:09:35;2.50;;;1.50;;
55146;SDS011;41039;49.830;23.988;2023-12-20T04:12:00;2.13;;;1.73;;
55146;SDS011;41039;49.830;23.988;2023-12-20T04:14:25;3.20;;;2.15;;
55146;SDS011;41039;49.830;23.988;2023-12-20T04:16:50;2.77;;;1.97;;
55146;SDS011;41039;49.830;23.988;2023-12-20T04:19:16;2.25;;;1.63;;
55146;SDS011;41039;49.830;23.988;2023-12-20T04:21:41;2.13;;;1.77;;
55146;SDS011;41039;49.830;23.988;2023-12-20T04:24:06;2.53;;;1.90;;
55146;SDS011;41039;49.830;23.988;2023-12-20T04:26:31;3.08;;;2.00;;
55146;SDS011;41039;49.830;23.988;2023-12-20T04:28:57;2.40;;;1.80;;
55146;SDS011;41039;49.830;23.988;2023-12-20T04:31:22;3.03;;;1.93;;
55146;SDS011;41039;49.830;23.988;2023-12-20T04:33:47;2.83;;;2.00;;
55146;SDS011;41039;49.830;23.988;2023-12-20T04:36:13;2.00;;;1.65;;
55146;SDS011;41039;49.830;23.988;2023-12-20T04:38:38;2.42;;;2.03;;
55146;SDS011;41039;49.830;23.988;2023-12-20T04:41:03;3.22;;;2.05;;
55146;SDS011;41039;49.830;23.988;2023-12-20T04:43:29;2.87;;;2.00;;
55146;SDS011;41039;49.830;23.988;2023-12-20T04:45:54;2.70;;;1.80;;
55146;SDS011;41039;49.830;23.988;2023-12-20T04:48:20;2.35;;;1.83;;
55146;SDS011;41039;49.830;23.988;2023-12-20T04:50:45;2.70;;;1.93;;
55146;SDS011;41039;49.830;23.988;2023-12-20T04:53:10;3.03;;;2.10;;
55146;SDS011;41039;49.830;23.988;2023-12-20T04:55:35;2.47;;;1.73;;
55146;SDS011;41039;49.830;23.988;2023-12-20T04:58:01;3.33;;;1.88;;
55146;SDS011;41039;49.830;23.988;2023-12-20T05:00:26;2.35;;;1.70;;
55146;SDS011;41039;49.830;23.988;2023-12-20T05:02:52;2.60;;;1.77;;
55146;SDS011;41039;49.830;23.988;2023-12-20T05:05:17;2.80;;;2.00;;
55146;SDS011;41039;49.830;23.988;2023-12-20T05:07:43;2.95;;;2.03;;
55146;SDS011;41039;49.830;23.988;2023-12-20T05:10:08;3.00;;;2.08;;
55146;SDS011;41039;49.830;23.988;2023-12-20T05:12:34;2.50;;;1.83;;
55146;SDS011;41039;49.830;23.988;2023-12-20T05:14:59;2.95;;;1.90;;
55146;SDS011;41039;49.830;23.988;2023-12-20T05:17:25;2.53;;;1.75;;
55146;SDS011;41039;49.830;23.988;2023-12-20T05:19:50;2.67;;;1.80;;
55146;SDS011;41039;49.830;23.988;2023-12-20T05:22:15;3.03;;;1.90;;
55146;SDS011;41039;49.830;23.988;2023-12-20T05:24:41;2.67;;;2.00;;
55146;SDS011;41039;49.830;23.988;2023-12-20T05:27:06;2.78;;;2.08;;
55146;SDS011;41039;49.830;23.988;2023-12-20T05:29:31;3.20;;;2.00;;
55146;SDS011;41039;49.830;23.988;2023-12-20T05:31:57;2.60;;;1.83;;
55146;SDS011;41039;49.830;23.988;2023-12-20T05:34:23;2.83;;;2.20;;
55146;SDS011;41039;49.830;23.988;2023-12-20T05:36:48;2.40;;;1.70;;
55146;SDS011;41039;49.830;23.988;2023-12-20T05:39:13;3.17;;;2.13;;
55146;SDS011;41039;49.830;23.988;2023-12-20T05:41:38;2.30;;;1.75;;
55146;SDS011;41039;49.830;23.988;2023-12-20T05:44:04;2.25;;;1.67;;
55146;SDS011;41039;49.830;23.988;2023-12-20T05:46:29;2.80;;;1.97;;
55146;SDS011;41039;49.830;23.988;2023-12-20T05:48:54;2.80;;;2.13;;
55146;SDS011;41039;49.830;23.988;2023-12-20T05:51:19;3.30;;;2.03;;
55146;SDS011;41039;49.830;23.988;2023-12-20T05:53:44;2.73;;;1.90;;
55146;SDS011;41039;49.830;23.988;2023-12-20T05:56:10;2.87;;;2.20;;
55146;SDS011;41039;49.830;23.988;2023-12-20T05:58:35;3.30;;;2.25;;
55146;SDS011;41039;49.830;23.988;2023-12-20T06:01:00;3.37;;;2.10;;
55146;SDS011;41039;49.830;23.988;2023-12-20T06:03:26;2.80;;;2.13;;
55146;SDS011;41039;49.830;23.988;2023-12-20T06:05:51;3.40;;;2.30;;
55146;SDS011;41039;49.830;23.988;2023-12-20T06:08:17;3.60;;;2.55;;
55146;SDS011;41039;49.830;23.988;2023-12-20T06:10:42;4.82;;;2.35;;
55146;SDS011;41039;49.830;23.988;2023-12-20T06:13:07;3.10;;;2.40;;
55146;SDS011;41039;49.830;23.988;2023-12-20T06:15:32;3.20;;;2.55;;
55146;SDS011;41039;49.830;23.988;2023-12-20T06:17:58;3.30;;;2.42;;
55146;SDS011;41039;49.830;23.988;2023-12-20T06:20:23;2.95;;;2.42;;
55146;SDS011;41039;49.830;23.988;2023-12-20T06:22:48;3.35;;;2.50;;
55146;SDS011;41039;49.830;23.988;2023-12-20T06:25:14;3.20;;;2.55;;
55146;SDS011;41039;49.830;23.988;2023-12-20T06:27:39;3.03;;;2.25;;
55146;SDS011;41039;49.830;23.988;2023-12-20T06:30:06;3.00;;;2.22;;
55146;SDS011;41039;49.830;23.988;2023-12-20T06:32:31;2.95;;;2.60;;
55146;SDS011;41039;49.830;23.988;2023-12-20T06:34:56;3.40;;;2.83;;
55146;SDS011;41039;49.830;23.988;2023-12-20T06:37:22;3.10;;;2.53;;
55146;SDS011;41039;49.830;23.988;2023-12-20T06:39:47;3.10;;;2.37;;
55146;SDS011;41039;49.830;23.988;2023-12-20T06:42:12;4.15;;;2.40;;
55146;SDS011;41039;49.830;23.988;2023-12-20T06:44:38;3.80;;;2.60;;
55146;SDS011;41039;49.830;23.988;2023-12-20T06:47:03;3.47;;;2.30;;
55146;SDS011;41039;49.830;23.988;2023-12-20T06:49:29;3.08;;;2.60;;
55146;SDS011;41039;49.830;23.988;2023-12-20T06:51:54;3.45;;;2.67;;
55146;SDS011;41039;49.830;23.988;2023-12-20T06:54:19;3.30;;;2.50;;
55146;SDS011;41039;49.830;23.988;2023-12-20T06:56:45;2.83;;;2.30;;
55146;SDS011;41039;49.830;23.988;2023-12-20T06:59:10;4.97;;;2.80;;
55146;SDS011;41039;49.830;23.988;2023-12-20T07:01:35;3.10;;;2.37;;
55146;SDS011;41039;49.830;23.988;2023-12-20T07:04:00;3.10;;;2.45;;
55146;SDS011;41039;49.830;23.988;2023-12-20T07:06:26;3.55;;;2.58;;
55146;SDS011;41039;49.830;23.988;2023-12-20T07:08:52;3.70;;;2.70;;
55146;SDS011;41039;49.830;23.988;2023-12-20T07:11:17;3.08;;;2.55;;
55146;SDS011;41039;49.830;23.988;2023-12-20T07:13:42;3.65;;;2.70;;
55146;SDS011;41039;49.830;23.988;2023-12-20T07:16:07;2.92;;;2.33;;
55146;SDS011;41039;49.830;23.988;2023-12-20T07:18:33;4.17;;;2.60;;
55146;SDS011;41039;49.830;23.988;2023-12-20T07:20:58;4.43;;;2.90;;
55146;SDS011;41039;49.830;23.988;2023-12-20T07:23:23;3.50;;;2.58;;
55146;SDS011;41039;49.830;23.988;2023-12-20T07:25:48;3.78;;;2.55;;
55146;SDS011;41039;49.830;23.988;2023-12-20T07:28:14;3.53;;;2.57;;
55146;SDS011;41039;49.830;23.988;2023-12-20T07:30:39;3.20;;;2.57;;
55146;SDS011;41039;49.830;23.988;2023-12-20T07:33:04;3.17;;;2.23;;
55146;SDS011;41039;49.830;23.988;2023-12-20T07:35:29;4.03;;;2.42;;
55146;SDS011;41039;49.830;23.988;2023-12-20T07:37:54;3.00;;;2.40;;
55146;SDS011;41039;49.830;23.988;2023-12-20T07:40:20;3.87;;;2.90;;
55146;SDS011;41039;49.830;23.988;2023-12-20T07:42:45;4.03;;;2.53;;
55146;SDS011;41039;49.830;23.988;2023-12-20T07:45:10;4.22;;;2.70;;
55146;SDS011;41039;49.830;23.988;2023-12-20T07:47:36;3.45;;;2.70;;
55146;SDS011;41039;49.830;23.988;2023-12-20T07:50:02;3.33;;;2.40;;
55146;SDS011;41039;49.830;23.988;2023-12-20T07:52:27;3.08;;;2.40;;
55146;SDS011;41039;49.830;23.988;2023-12-20T07:54:53;3.93;;;2.60;;
55146;SDS011;41039;49.830;23.988;2023-12-20T07:57:18;3.42;;;2.33;;
55146;SDS011;41039;49.830;23.988;2023-12-20T07:59:43;3.33;;;2.38;;
55146;SDS011;41039;49.830;23.988;2023-12-20T08:02:09;3.10;;;2.40;;
55146;SDS011;41039;49.830;23.988;2023-12-20T08:04:34;3.50;;;2.47;;
55146;SDS011;41039;49.830;23.988;2023-12-20T08:07:00;3.50;;;2.90;;
55146;SDS011;41039;49.830;23.988;2023-12-20T08:09:25;3.70;;;2.50;;
55146;SDS011;41039;49.830;23.988;2023-12-20T08:11:50;6.38;;;2.63;;
55146;SDS011;41039;49.830;23.988;2023-12-20T08:14:16;3.30;;;2.57;;
55146;SDS011;41039;49.830;23.988;2023-12-20T08:16:41;5.25;;;2.53;;
55146;SDS011;41039;49.830;23.988;2023-12-20T08:19:06;3.00;;;2.03;;
55146;SDS011;41039;49.830;23.988;2023-12-20T08:21:31;3.40;;;2.50;;
55146;SDS011;41039;49.830;23.988;2023-12-20T08:23:57;4.37;;;2.53;;
55146;SDS011;41039;49.830;23.988;2023-12-20T08:26:22;3.05;;;2.38;;
55146;SDS011;41039;49.830;23.988;2023-12-20T08:28:49;4.53;;;3.20;;
55146;SDS011;41039;49.830;23.988;2023-12-20T08:31:14;4.43;;;2.95;;
55146;SDS011;41039;49.830;23.988;2023-12-20T08:33:41;3.20;;;2.58;;
55146;SDS011;41039;49.830;23.988;2023-12-20T08:36:06;4.33;;;3.10;;
55146;SDS011;41039;49.830;23.988;2023-12-20T08:38:31;4.30;;;2.73;;
55146;SDS011;41039;49.830;23.988;2023-12-20T08:40:56;4.03;;;2.53;;
55146;SDS011;41039;49.830;23.988;2023-12-20T08:43:22;5.90;;;2.60;;
55146;SDS011;41039;49.830;23.988;2023-12-20T08:45:47;3.40;;;2.43;;
55146;SDS011;41039;49.830;23.988;2023-12-20T08:48:12;3.83;;;2.73;;
55146;SDS011;41039;49.830;23.988;2023-12-20T08:50:37;5.17;;;2.70;;
55146;SDS011;41039;49.830;23.988;2023-12-20T08:53:03;3.20;;;2.80;;
55146;SDS011;41039;49.830;23.988;2023-12-20T08:55:29;4.20;;;2.72;;
55146;SDS011;41039;49.830;23.988;2023-12-20T08:57:55;3.80;;;2.70;;
55146;SDS011;41039;49.830;23.988;2023-12-20T09:00:21;3.70;;;2.40;;
55146;SDS011;41039;49.830;23.988;2023-12-20T09:02:49;5.38;;;3.03;;
55146;SDS011;41039;49.830;23.988;2023-12-20T09:05:14;4.88;;;2.70;;
55146;SDS011;41039;49.830;23.988;2023-12-20T09:07:39;3.65;;;2.80;;
55146;SDS011;41039;49.830;23.988;2023-12-20T09:10:05;3.72;;;2.70;;
55146;SDS011;41039;49.830;23.988;2023-12-20T09:12:30;3.30;;;2.17;;
55146;SDS011;41039;49.830;23.988;2023-12-20T09:14:55;4.45;;;2.42;;
55146;SDS011;41039;49.830;23.988;2023-12-20T09:17:21;4.23;;;2.60;;
55146;SDS011;41039;49.830;23.988;2023-12-20T09:19:48;3.95;;;2.47;;
55146;SDS011;41039;49.830;23.988;2023-12-20T09:22:13;4.28;;;2.90;;
55146;SDS011;41039;49.830;23.988;2023-12-20T09:24:38;4.30;;;2.45;;
55146;SDS011;41039;49.830;23.988;2023-12-20T09:27:04;3.72;;;2.30;;
55146;SDS011;41039;49.830;23.988;2023-12-20T09:29:30;5.25;;;2.60;;
55146;SDS011;41039;49.830;23.988;2023-12-20T09:31:55;4.45;;;2.33;;
55146;SDS011;41039;49.830;23.988;2023-12-20T09:34:22;4.57;;;2.65;;
55146;SDS011;41039;49.830;23.988;2023-12-20T09:36:47;3.92;;;2.10;;
55146;SDS011;41039;49.830;23.988;2023-12-20T09:39:16;3.07;;;2.37;;
55146;SDS011;41039;49.830;23.988;2023-12-20T09:41:44;3.45;;;2.60;;
55146;SDS011;41039;49.830;23.988;2023-12-20T09:44:16;3.80;;;2.50;;
55146;SDS011;41039;49.830;23.988;2023-12-20T09:46:45;4.97;;;2.72;;
55146;SDS011;41039;49.830;23.988;2023-12-20T09:49:11;3.95;;;2.60;;
55146;SDS011;41039;49.830;23.988;2023-12-20T09:51:36;5.47;;;3.33;;
55146;SDS011;41039;49.830;23.988;2023-12-20T09:54:03;3.15;;;2.47;;
55146;SDS011;41039;49.830;23.988;2023-12-20T09:56:28;3.63;;;2.45;;
55146;SDS011;41039;49.830;23.988;2023-12-20T09:58:54;4.00;;;2.40;;
55146;SDS011;41039;49.830;23.988;2023-12-20T10:01:19;4.20;;;2.58;;
55146;SDS011;41039;49.830;23.988;2023-12-20T10:03:44;3.03;;;1.92;;
55146;SDS011;41039;49.830;23.988;2023-12-20T10:06:10;4.03;;;2.35;;
55146;SDS011;41039;49.830;23.988;2023-12-20T10:08:35;3.50;;;2.50;;
55146;SDS011;41039;49.830;23.988;2023-12-20T10:11:00;5.30;;;2.60;;
55146;SDS011;41039;49.830;23.988;2023-12-20T10:13:27;3.72;;;2.35;;
55146;SDS011;41039;49.830;23.988;2023-12-20T10:15:54;4.07;;;2.50;;
55146;SDS011;41039;49.830;23.988;2023-12-20T10:18:19;4.38;;;2.58;;
55146;SDS011;41039;49.830;23.988;2023-12-20T10:20:45;3.60;;;2.42;;
55146;SDS011;41039;49.830;23.988;2023-12-20T10:23:11;2.70;;;2.25;;
55146;SDS011;41039;49.830;23.988;2023-12-20T10:25:37;3.78;;;2.30;;
55146;SDS011;41039;49.830;23.988;2023-12-20T10:28:12;3.78;;;2.50;;
55146;SDS011;41039;49.830;23.988;2023-12-20T10:30:38;4.07;;;2.65;;
55146;SDS011;41039;49.830;23.988;2023-12-20T10:33:05;5.05;;;2.63;;
55146;SDS011;41039;49.830;23.988;2023-12-20T10:35:30;4.82;;;3.00;;
55146;SDS011;41039;49.830;23.988;2023-12-20T10:37:56;3.50;;;2.10;;
55146;SDS011;41039;49.830;23.988;2023-12-20T10:40:24;3.70;;;2.58;;
55146;SDS011;41039;49.830;23.988;2023-12-20T10:42:50;3.80;;;2.72;;
55146;SDS011;41039;49.830;23.988;2023-12-20T10:45:16;3.50;;;2.40;;
55146;SDS011;41039;49.830;23.988;2023-12-20T10:47:42;3.63;;;2.35;;
55146;SDS011;41039;49.830;23.988;2023-12-20T10:50:08;3.50;;;2.40;;
55146;SDS011;41039;49.830;23.988;2023-12-20T10:52:33;4.90;;;2.78;;
55146;SDS011;41039;49.830;23.988;2023-12-20T10:54:59;4.45;;;2.60;;
55146;SDS011;41039;49.830;23.988;2023-12-20T10:57:24;3.88;;;2.55;;
55146;SDS011;41039;49.830;23.988;2023-12-20T10:59:51;4.00;;;2.75;;
55146;SDS011;41039;49.830;23.988;2023-12-20T11:02:18;4.15;;;2.58;;
55146;SDS011;41039;49.830;23.988;2023-12-20T11:10:00;3.95;;;3.00;;
55146;SDS011;41039;49.830;23.988;2023-12-20T11:12:42;4.32;;;3.03;;
55146;SDS011;41039;49.830;23.988;2023-12-20T11:15:09;4.82;;;3.03;;
55146;SDS011;41039;49.830;23.988;2023-12-20T11:17:34;4.05;;;3.03;;
55146;SDS011;41039;49.830;23.988;2023-12-20T11:22:32;4.03;;;2.88;;
55146;SDS011;41039;49.830;23.988;2023-12-20T11:24:59;4.85;;;2.80;;
55146;SDS011;41039;49.830;23.988;2023-12-20T11:27:27;3.75;;;2.70;;
55146;SDS011;41039;49.830;23.988;2023-12-20T11:29:53;3.87;;;2.70;;
55146;SDS011;41039;49.830;23.988;2023-12-20T11:34:47;3.50;;;2.90;;
55146;SDS011;41039;49.830;23.988;2023-12-20T11:37:12;4.80;;;3.20;;
55146;SDS011;41039;49.830;23.988;2023-12-20T11:39:38;4.43;;;2.97;;
55146;SDS011;41039;49.830;23.988;2023-12-20T11:42:06;4.25;;;3.17;;
55146;SDS011;41039;49.830;23.988;2023-12-20T11:44:32;5.00;;;3.53;;
55146;SDS011;41039;49.830;23.988;2023-12-20T11:46:58;5.05;;;4.00;;
55146;SDS011;41039;49.830;23.988;2023-12-20T11:49:26;4.85;;;3.75;;
55146;SDS011;41039;49.830;23.988;2023-12-20T11:51:51;6.25;;;4.15;;
55146;SDS011;41039;49.830;23.988;2023-12-20T11:54:16;6.13;;;4.03;;
55146;SDS011;41039;49.830;23.988;2023-12-20T11:56:42;6.38;;;4.03;;
55146;SDS011;41039;49.830;23.988;2023-12-20T11:59:08;5.43;;;3.85;;
55146;SDS011;41039;49.830;23.988;2023-12-20T12:01:33;7.32;;;3.80;;
55146;SDS011;41039;49.830;23.988;2023-12-20T12:04:07;5.78;;;3.95;;
55146;SDS011;41039;49.830;23.988;2023-12-20T12:06:33;6.13;;;3.97;;
55146;SDS011;41039;49.830;23.988;2023-12-20T12:08:58;7.97;;;4.13;;
55146;SDS011;41039;49.830;23.988;2023-12-20T12:11:24;5.55;;;3.72;;
55146;SDS011;41039;49.830;23.988;2023-12-20T12:13:49;6.95;;;4.32;;
55146;SDS011;41039;49.830;23.988;2023-12-20T12:16:18;5.65;;;3.78;;
55146;SDS011;41039;49.830;23.988;2023-12-20T12:18:46;6.95;;;4.18;;
55146;SDS011;41039;49.830;23.988;2023-12-20T12:21:18;6.30;;;3.90;;
55146;SDS011;41039;49.830;23.988;2023-12-20T12:23:43;4.78;;;3.65;;
55146;SDS011;41039;49.830;23.988;2023-12-20T12:26:09;7.93;;;4.23;;
55146;SDS011;41039;49.830;23.988;2023-12-20T12:28:34;7.85;;;3.65;;
55146;SDS011;41039;49.830;23.988;2023-12-20T12:31:00;5.10;;;3.38;;
55146;SDS011;41039;49.830;23.988;2023-12-20T12:33:25;4.45;;;3.67;;
55146;SDS011;41039;49.830;23.988;2023-12-20T12:35:51;5.32;;;3.83;;
55146;SDS011;41039;49.830;23.988;2023-12-20T12:38:20;5.18;;;3.38;;
55146;SDS011;41039;49.830;23.988;2023-12-20T12:40:46;5.18;;;3.40;;
55146;SDS011;41039;49.830;23.988;2023-12-20T12:43:11;5.90;;;3.72;;
55146;SDS011;41039;49.830;23.988;2023-12-20T12:45:37;4.70;;;3.20;;
55146;SDS011;41039;49.830;23.988;2023-12-20T12:48:02;5.60;;;3.43;;
55146;SDS011;41039;49.830;23.988;2023-12-20T12:50:28;4.97;;;3.33;;
55146;SDS011;41039;49.830;23.988;2023-12-20T12:52:53;6.15;;;3.85;;
55146;SDS011;41039;49.830;23.988;2023-12-20T12:55:19;4.38;;;3.45;;
55146;SDS011;41039;49.830;23.988;2023-12-20T12:57:44;5.03;;;3.23;;
55146;SDS011;41039;49.830;23.988;2023-12-20T13:00:09;5.50;;;3.28;;
55146;SDS011;41039;49.830;23.988;2023-12-20T13:02:36;4.57;;;3.17;;
55146;SDS011;41039;49.830;23.988;2023-12-20T13:05:02;5.07;;;3.25;;
55146;SDS011;41039;49.830;23.988;2023-12-20T13:07:29;5.45;;;3.38;;
55146;SDS011;41039;49.830;23.988;2023-12-20T13:09:54;5.85;;;3.40;;
55146;SDS011;41039;49.830;23.988;2023-12-20T13:12:19;5.37;;;3.53;;
55146;SDS011;41039;49.830;23.988;2023-12-20T13:14:46;4.72;;;3.10;;
55146;SDS011;41039;49.830;23.988;2023-12-20T13:17:12;4.85;;;3.50;;
55146;SDS011;41039;49.830;23.988;2023-12-20T13:19:37;3.55;;;2.80;;
55146;SDS011;41039;49.830;23.988;2023-12-20T13:22:02;4.00;;;3.07;;
55146;SDS011;41039;49.830;23.988;2023-12-20T13:24:29;5.35;;;3.20;;
55146;SDS011;41039;49.830;23.988;2023-12-20T13:26:57;4.50;;;2.97;;
55146;SDS011;41039;49.830;23.988;2023-12-20T13:29:23;4.35;;;3.03;;
55146;SDS011;41039;49.830;23.988;2023-12-20T13:31:49;4.78;;;3.53;;
55146;SDS011;41039;49.830;23.988;2023-12-20T13:34:14;4.63;;;3.25;;
55146;SDS011;41039;49.830;23.988;2023-12-20T13:36:42;5.38;;;3.38;;
55146;SDS011;41039;49.830;23.988;2023-12-20T13:39:07;4.75;;;3.25;;
55146;SDS011;41039;49.830;23.988;2023-12-20T13:41:33;5.27;;;3.70;;
55146;SDS011;41039;49.830;23.988;2023-12-20T13:43:58;4.57;;;3.50;;
55146;SDS011;41039;49.830;23.988;2023-12-20T13:46:23;5.30;;;3.60;;
55146;SDS011;41039;49.830;23.988;2023-12-20T13:48:49;6.82;;;3.80;;
55146;SDS011;41039;49.830;23.988;2023-12-20T13:51:14;4.85;;;3.58;;
55146;SDS011;41039;49.830;23.988;2023-12-20T13:53:40;6.93;;;3.83;;
55146;SDS011;41039;49.830;23.988;2023-12-20T13:56:05;7.00;;;3.97;;
55146;SDS011;41039;49.830;23.988;2023-12-20T13:58:31;4.57;;;3.47;;
55146;SDS011;41039;49.830;23.988;2023-12-20T14:00:56;4.60;;;3.72;;
55146;SDS011;41039;49.830;23.988;2023-12-20T14:03:21;5.97;;;4.00;;
55146;SDS011;41039;49.830;23.988;2023-12-20T14:05:47;5.47;;;3.97;;
55146;SDS011;41039;49.830;23.988;2023-12-20T14:08:12;5.53;;;3.80;;
55146;SDS011;41039;49.830;23.988;2023-12-20T14:10:37;5.30;;;3.80;;
55146;SDS011;41039;49.830;23.988;2023-12-20T14:13:03;4.47;;;3.60;;
55146;SDS011;41039;49.830;23.988;2023-12-20T14:15:30;5.60;;;3.55;;
55146;SDS011;41039;49.830;23.988;2023-12-20T14:17:55;5.53;;;3.40;;
55146;SDS011;41039;49.830;23.988;2023-12-20T14:20:21;5.80;;;3.25;;
55146;SDS011;41039;49.830;23.988;2023-12-20T14:22:46;4.15;;;3.22;;
55146;SDS011;41039;49.830;23.988;2023-12-20T14:25:12;4.82;;;3.30;;
55146;SDS011;41039;49.830;23.988;2023-12-20T14:27:37;4.35;;;3.50;;
55146;SDS011;41039;49.830;23.988;2023-12-20T14:30:03;6.28;;;3.40;;
55146;SDS011;41039;49.830;23.988;2023-12-20T14:32:28;5.13;;;3.30;;
55146;SDS011;41039;49.830;23.988;2023-12-20T14:34:53;4.47;;;3.40;;